Celik 1 — 9HKY9 — position and weather

sailwx.info

Track history (hours):
 
Tides and Currents Weather Stations Pressure Air Temp Water Temp Dewpoint Dewpoint Depression Visibility Wind Speed Wind Dir Waves Ship Positions

Celik 1

Last reported at 2015-May-30 16:33 UTC. Time now 2015-May-30 16:38 UTC.
Position N 40°25' E 018°33'.

Length 121 m; draft 6.5 m.

Type: Cargo ship. MMSI: 249114000.

Date/timePositionNaut miles runAvg speedWind from/ knotsBaromVisibWave heightAir tempDewpointWater temp
2015-May-30 16:33N 40°25' E 018°33'10 9.8
2015-May-30 15:33N 40°33' E 018°27'10 9.6
2015-May-30 14:34N 40°40' E 018°18'11 9.8
2015-May-30 13:28N 40°47' E 018°08'9 9.5
2015-May-30 12:32N 40°53' E 017°59'10 9.8
2015-May-30 11:32N 40°60' E 017°50'30 9.7
2015-May-30 08:29N 41°20' E 017°21'10 9.8
2015-May-30 07:28N 41°27' E 017°11'1410.1
2015-May-30 06:06N 41°36' E 016°58'610.2
2015-May-30 05:31N 41°40' E 016°52'  
Track history (hours):
 
Tides and Currents Weather Stations Pressure Air Temp Water Temp Dewpoint Dewpoint Depression Visibility Wind Speed Wind Dir Waves Ship Positions

Celik 1

Last reported at 2015-May-30 16:33 UTC. Time now 2015-May-30 16:38 UTC.
Position N 40°25' E 018°33'.

Length 121 m; draft 6.5 m.

Type: Cargo ship. MMSI: 249114000.

Date/timePositionNaut miles runAvg speedWind from/ knotsBaromVisibWave heightAir tempDewpointWater temp
2015-May-30 16:33N 40°25' E 018°33'10 9.8
2015-May-30 15:33N 40°33' E 018°27'10 9.6
2015-May-30 14:34N 40°40' E 018°18'11 9.8
2015-May-30 13:28N 40°47' E 018°08'9 9.5
2015-May-30 12:32N 40°53' E 017°59'10 9.8
2015-May-30 11:32N 40°60' E 017°50'30 9.7
2015-May-30 08:29N 41°20' E 017°21'10 9.8
2015-May-30 07:28N 41°27' E 017°11'1410.1
2015-May-30 06:06N 41°36' E 016°58'610.2
2015-May-30 05:31N 41°40' E 016°52'  

Dump ship's entire track history